Time;durP1;ratioP1;P1;durP2;ratioP2;P2;SDS_P1;SDS_P2;PMS_P1;PMS_P2;Temp;Humidity;BMP_temperature;BMP_pressure;BME280_temperature;BME280_humidity;BME280_pressure;Samples;Min_cycle;Max_cycle;Signal;HPM_P1;HPM_P2
2023/08/23 00:02:01;;;;;;;4.88;3.95;;;;;;;;;;5012010;28;20231;-86
2023/08/23 00:04:34;;;;;;;4.40;4.00;;;;;;;;;;5011417;28;20278;-86
2023/08/23 00:07:01;;;;;;;5.10;3.95;;;;;;;;;;5003718;28;20230;-86
2023/08/23 00:09:28;;;;;;;5.28;4.50;;;;;;;;;;5011449;28;20756;-86
2023/08/23 00:11:56;;;;;;;4.93;4.43;;;;;;;;;;5011122;28;20227;-86
2023/08/23 00:14:24;;;;;;;6.15;4.32;;;;;;;;;;5011936;28;20242;-86
2023/08/23 00:16:51;;;;;;;4.22;3.78;;;;;;;;;;5013326;28;20596;-86
2023/08/23 00:19:18;;;;;;;4.68;4.28;;;;;;;;;;5031822;28;20210;-86
2023/08/23 00:21:45;;;;;;;5.75;4.15;;;;;;;;;;5018458;28;20235;-86
2023/08/23 00:24:12;;;;;;;4.90;4.00;;;;;;;;;;5026458;28;20238;-86
2023/08/23 00:26:39;;;;;;;5.05;4.13;;;;;;;;;;5004811;28;20243;-86
2023/08/23 00:29:07;;;;;;;5.57;4.18;;;;;;;;;;5011684;28;20230;-86
2023/08/23 00:31:34;;;;;;;5.15;4.35;;;;;;;;;;5011165;28;20223;-86
2023/08/23 00:34:01;;;;;;;5.18;4.68;;;;;;;;;;5022172;28;20209;-86
2023/08/23 00:36:28;;;;;;;6.47;4.63;;;;;;;;;;5011168;28;20235;-86
2023/08/23 00:38:56;;;;;;;7.90;4.57;;;;;;;;;;5007828;28;20207;-86
2023/08/23 00:41:23;;;;;;;4.82;4.35;;;;;;;;;;5009702;28;20239;-86
2023/08/23 00:43:50;;;;;;;5.30;4.43;;;;;;;;;;5010747;28;20212;-86
2023/08/23 00:46:19;;;;;;;5.45;4.43;;;;;;;;;;5008398;28;20247;-86
2023/08/23 00:48:47;;;;;;;4.97;4.45;;;;;;;;;;5009686;28;20232;-86
2023/08/23 00:51:15;;;;;;;5.47;4.40;;;;;;;;;;5011031;28;20238;-86
2023/08/23 00:53:42;;;;;;;5.03;4.60;;;;;;;;;;5011511;28;20216;-87
2023/08/23 00:56:09;;;;;;;5.22;4.65;;;;;;;;;;5047967;22;20231;-86
2023/08/23 00:58:37;;;;;;;9.30;4.25;;;;;;;;;;5028879;28;20578;-86
2023/08/23 01:01:04;;;;;;;6.00;4.55;;;;;;;;;;5023514;28;20696;-86
2023/08/23 01:03:33;;;;;;;5.38;4.88;;;;;;;;;;5029370;28;20211;-83
2023/08/23 01:06:07;;;;;;;5.95;5.35;;;;;;;;;;5013243;28;20235;-84
2023/08/23 01:08:39;;;;;;;5.78;4.60;;;;;;;;;;5023005;28;20353;-83
2023/08/23 01:11:09;;;;;;;5.13;4.57;;;;;;;;;;5024381;28;20227;-84
2023/08/23 01:13:40;;;;;;;4.47;3.83;;;;;;;;;;5031478;28;20211;-84
2023/08/23 01:16:10;;;;;;;5.32;4.78;;;;;;;;;;5019387;28;20230;-83
2023/08/23 01:18:39;;;;;;;5.95;4.63;;;;;;;;;;5011956;28;20207;-84
2023/08/23 01:21:08;;;;;;;5.95;4.65;;;;;;;;;;5021081;28;20238;-83
2023/08/23 01:23:36;;;;;;;5.10;4.68;;;;;;;;;;5015390;28;20709;-83
2023/08/23 01:26:03;;;;;;;4.75;4.35;;;;;;;;;;5022780;28;20230;-84
2023/08/23 01:28:30;;;;;;;4.75;4.30;;;;;;;;;;5030986;28;20233;-84
2023/08/23 01:31:00;;;;;;;5.30;4.15;;;;;;;;;;5030411;28;20223;-83
2023/08/23 01:33:31;;;;;;;5.63;4.45;;;;;;;;;;5031473;28;20272;-83
2023/08/23 01:36:01;;;;;;;4.95;4.13;;;;;;;;;;5020396;28;20235;-84
2023/08/23 01:38:30;;;;;;;5.35;4.55;;;;;;;;;;5011617;28;20210;-83
2023/08/23 01:40:59;;;;;;;5.18;4.63;;;;;;;;;;5022435;28;20574;-84
2023/08/23 01:43:26;;;;;;;6.35;4.70;;;;;;;;;;5016827;28;20235;-84
2023/08/23 01:45:53;;;;;;;4.95;4.47;;;;;;;;;;5018360;28;20712;-84
2023/08/23 01:48:20;;;;;;;4.40;4.03;;;;;;;;;;5011566;28;20585;-84
2023/08/23 01:50:47;;;;;;;5.72;4.10;;;;;;;;;;5011998;28;20227;-84
2023/08/23 01:53:14;;;;;;;6.38;4.85;;;;;;;;;;5018339;28;20669;-83
2023/08/23 01:55:41;;;;;;;5.38;4.80;;;;;;;;;;5010779;28;20243;-84
2023/08/23 01:58:09;;;;;;;5.45;4.95;;;;;;;;;;5023630;28;20214;-84
2023/08/23 02:00:36;;;;;;;5.88;4.78;;;;;;;;;;5032100;28;20226;-83
2023/08/23 02:03:03;;;;;;;5.95;5.30;;;;;;;;;;5020124;28;20214;-83
2023/08/23 02:05:31;;;;;;;5.70;5.20;;;;;;;;;;5033261;28;20240;-83
2023/08/23 02:07:58;;;;;;;7.05;4.97;;;;;;;;;;5025200;28;20206;-84
2023/08/23 02:10:25;;;;;;;4.82;4.45;;;;;;;;;;5015864;28;20341;-83
2023/08/23 02:12:52;;;;;;;5.30;4.80;;;;;;;;;;5017861;28;20218;-84
2023/08/23 02:15:20;;;;;;;6.00;4.70;;;;;;;;;;5014679;28;20234;-84
2023/08/23 02:17:47;;;;;;;7.22;5.13;;;;;;;;;;5031508;28;20229;-83
2023/08/23 02:20:15;;;;;;;5.78;5.20;;;;;;;;;;5030402;28;20211;-84
2023/08/23 02:22:42;;;;;;;7.55;5.50;;;;;;;;;;5017529;28;20226;-84
2023/08/23 02:25:09;;;;;;;5.57;5.03;;;;;;;;;;5019467;28;20246;-83
2023/08/23 02:27:36;;;;;;;5.10;4.70;;;;;;;;;;5022035;28;20218;-84
2023/08/23 02:30:04;;;;;;;5.35;4.85;;;;;;;;;;5017673;28;20243;-83
2023/08/23 02:32:32;;;;;;;5.30;4.80;;;;;;;;;;5014709;28;20577;-84
2023/08/23 02:34:59;;;;;;;5.45;4.95;;;;;;;;;;5014524;28;20301;-84
2023/08/23 02:37:26;;;;;;;6.00;5.38;;;;;;;;;;5027451;28;20718;-83
2023/08/23 02:39:53;;;;;;;5.38;4.88;;;;;;;;;;5017677;28;20703;-84
2023/08/23 02:42:20;;;;;;;5.30;4.63;;;;;;;;;;5023218;28;20227;-83
2023/08/23 02:44:48;;;;;;;10.60;5.13;;;;;;;;;;5014726;28;20717;-83
2023/08/23 02:47:15;;;;;;;5.63;4.78;;;;;;;;;;5014875;28;20234;-84
2023/08/23 02:49:43;;;;;;;5.70;4.90;;;;;;;;;;5030448;28;20230;-84
2023/08/23 02:52:10;;;;;;;5.25;4.63;;;;;;;;;;5033274;28;20235;-84
2023/08/23 02:54:37;;;;;;;4.82;4.35;;;;;;;;;;5033943;28;20230;-83
2023/08/23 02:57:04;;;;;;;6.78;4.72;;;;;;;;;;5028388;28;20230;-83
2023/08/23 02:59:31;;;;;;;5.40;4.90;;;;;;;;;;5023941;28;20211;-83
2023/08/23 03:01:58;;;;;;;4.70;4.30;;;;;;;;;;5017222;28;20250;-84
2023/08/23 03:04:25;;;;;;;5.18;4.68;;;;;;;;;;5025984;28;20711;-84
2023/08/23 03:06:54;;;;;;;5.07;4.57;;;;;;;;;;5017054;28;20234;-84
2023/08/23 03:09:21;;;;;;;5.32;4.82;;;;;;;;;;5016263;28;20231;-83
2023/08/23 03:11:48;;;;;;;5.85;4.75;;;;;;;;;;5033043;28;20632;-83
2023/08/23 03:14:15;;;;;;;4.93;4.53;;;;;;;;;;5036497;28;20206;-85
2023/08/23 03:16:42;;;;;;;5.32;4.85;;;;;;;;;;5034052;28;20233;-84
2023/08/23 03:19:09;;;;;;;4.93;4.40;;;;;;;;;;5028138;28;20573;-84
2023/08/23 03:21:37;;;;;;;5.35;4.70;;;;;;;;;;5031596;28;20273;-84
2023/08/23 03:24:05;;;;;;;4.55;4.20;;;;;;;;;;5014026;28;20290;-84
2023/08/23 03:26:32;;;;;;;4.90;4.40;;;;;;;;;;5028048;28;20249;-84
2023/08/23 03:28:59;;;;;;;4.90;4.50;;;;;;;;;;5025026;28;20227;-84
2023/08/23 03:31:27;;;;;;;5.68;4.93;;;;;;;;;;5032746;28;20235;-84
2023/08/23 03:33:54;;;;;;;6.00;5.40;;;;;;;;;;5033272;28;20222;-84
2023/08/23 03:36:21;;;;;;;9.57;5.45;;;;;;;;;;5032623;28;20238;-84
2023/08/23 03:38:48;;;;;;;8.27;5.18;;;;;;;;;;5032928;28;20226;-84
2023/08/23 03:41:16;;;;;;;5.60;5.10;;;;;;;;;;5032408;28;20230;-84
2023/08/23 03:43:43;;;;;;;5.80;4.60;;;;;;;;;;5033315;28;20206;-84
2023/08/23 03:46:11;;;;;;;8.30;4.97;;;;;;;;;;5032238;28;20253;-85
2023/08/23 03:48:38;;;;;;;11.25;6.18;;;;;;;;;;5017851;28;20207;-86
2023/08/23 03:51:05;;;;;;;5.82;5.10;;;;;;;;;;5024059;28;20271;-85
2023/08/23 03:53:32;;;;;;;7.22;4.63;;;;;;;;;;5018906;28;20218;-85
2023/08/23 03:55:59;;;;;;;6.85;4.72;;;;;;;;;;5030161;28;20241;-85
2023/08/23 03:58:27;;;;;;;5.63;5.10;;;;;;;;;;5032417;28;20245;-85
2023/08/23 04:00:54;;;;;;;7.72;5.07;;;;;;;;;;5030842;28;20720;-84
2023/08/23 04:03:21;;;;;;;8.18;4.88;;;;;;;;;;5028852;28;20222;-84
2023/08/23 04:05:48;;;;;;;7.82;5.00;;;;;;;;;;5012415;28;20258;-84
2023/08/23 04:08:16;;;;;;;5.30;4.53;;;;;;;;;;5020525;28;20211;-85
2023/08/23 04:10:47;;;;;;;5.63;5.13;;;;;;;;;;5013548;28;20246;-84
2023/08/23 04:13:14;;;;;;;8.35;5.30;;;;;;;;;;5016144;28;20206;-84
2023/08/23 04:15:43;;;;;;;10.32;5.35;;;;;;;;;;5025846;28;20250;-83
2023/08/23 04:18:10;;;;;;;4.70;4.30;;;;;;;;;;5012680;28;20614;-83
2023/08/23 04:20:37;;;;;;;5.20;4.55;;;;;;;;;;5027492;28;20594;-83
2023/08/23 04:23:05;;;;;;;5.32;4.82;;;;;;;;;;5011892;28;20705;-83
2023/08/23 04:25:32;;;;;;;7.18;5.43;;;;;;;;;;5017867;28;20599;-83
2023/08/23 04:27:59;;;;;;;6.22;5.63;;;;;;;;;;5023662;28;20657;-83
2023/08/23 04:30:26;;;;;;;5.35;4.82;;;;;;;;;;5026060;28;20242;-83
2023/08/23 04:32:54;;;;;;;5.90;4.47;;;;;;;;;;5015582;28;20211;-82
2023/08/23 04:35:21;;;;;;;6.40;4.40;;;;;;;;;;5017038;28;20708;-83
2023/08/23 04:37:48;;;;;;;9.45;5.07;;;;;;;;;;5030993;28;20293;-83
2023/08/23 04:40:16;;;;;;;7.55;5.25;;;;;;;;;;5024825;28;20680;-83
2023/08/23 04:42:43;;;;;;;5.65;5.13;;;;;;;;;;5023012;28;20215;-83
2023/08/23 04:45:10;;;;;;;6.05;5.45;;;;;;;;;;5021594;28;20222;-83
2023/08/23 04:47:37;;;;;;;6.78;5.35;;;;;;;;;;5031676;28;20210;-83
2023/08/23 04:50:07;;;;;;;8.68;5.60;;;;;;;;;;5009733;28;20232;-84
2023/08/23 04:52:34;;;;;;;8.25;5.03;;;;;;;;;;5032086;28;20203;-84
2023/08/23 04:55:01;;;;;;;6.65;5.35;;;;;;;;;;5023358;28;20312;-84
2023/08/23 04:57:28;;;;;;;6.53;5.22;;;;;;;;;;5031580;28;20233;-86
2023/08/23 04:59:55;;;;;;;8.80;5.60;;;;;;;;;;5024318;28;20213;-87
2023/08/23 05:02:22;;;;;;;9.43;5.88;;;;;;;;;;5016171;28;20235;-88
2023/08/23 05:04:49;;;;;;;10.43;8.82;;;;;;;;;;5016183;28;20234;-87
2023/08/23 05:07:18;;;;;;;6.70;6.20;;;;;;;;;;5031033;28;20231;-87
2023/08/23 05:09:45;;;;;;;8.73;6.57;;;;;;;;;;5014810;28;20596;-87
2023/08/23 05:12:12;;;;;;;7.22;5.57;;;;;;;;;;5012739;28;20227;-87
2023/08/23 05:14:39;;;;;;;7.10;5.80;;;;;;;;;;5013668;28;20230;-87
2023/08/23 05:17:06;;;;;;;12.75;6.35;;;;;;;;;;5016305;28;20249;-88
2023/08/23 05:19:33;;;;;;;9.27;6.50;;;;;;;;;;5033678;28;20210;-88
2023/08/23 05:22:00;;;;;;;7.95;6.60;;;;;;;;;;5032424;28;20232;-87
2023/08/23 05:24:28;;;;;;;7.07;6.38;;;;;;;;;;5032587;28;20230;-86
2023/08/23 05:26:55;;;;;;;7.45;6.75;;;;;;;;;;5031321;28;20231;-86
2023/08/23 05:29:23;;;;;;;9.43;6.78;;;;;;;;;;5032766;28;20222;-86
2023/08/23 05:31:50;;;;;;;7.85;7.05;;;;;;;;;;5031964;28;20234;-85
2023/08/23 05:34:17;;;;;;;8.32;6.70;;;;;;;;;;5018764;28;20214;-85
2023/08/23 05:36:44;;;;;;;8.35;6.70;;;;;;;;;;5019262;28;20238;-86
2023/08/23 05:39:11;;;;;;;8.23;7.45;;;;;;;;;;5034264;28;20214;-85
2023/08/23 05:41:39;;;;;;;8.07;7.28;;;;;;;;;;5030546;28;20237;-86
2023/08/23 05:44:07;;;;;;;9.07;6.93;;;;;;;;;;5025686;28;20242;-85
2023/08/23 05:46:34;;;;;;;7.93;7.32;;;;;;;;;;5027302;28;20233;-86
2023/08/23 05:49:01;;;;;;;8.68;7.40;;;;;;;;;;5020808;28;20227;-85
2023/08/23 05:51:28;;;;;;;8.48;7.63;;;;;;;;;;5026022;28;20665;-85
2023/08/23 05:53:55;;;;;;;8.80;8.00;;;;;;;;;;5028541;28;20211;-85
2023/08/23 05:56:22;;;;;;;10.85;7.95;;;;;;;;;;5023700;28;20713;-85
2023/08/23 05:58:51;;;;;;;15.40;8.13;;;;;;;;;;5027941;28;20217;-86
2023/08/23 06:01:18;;;;;;;12.02;8.70;;;;;;;;;;5027045;28;20715;-84
2023/08/23 06:03:45;;;;;;;11.50;8.63;;;;;;;;;;5027256;28;20576;-85
2023/08/23 06:06:12;;;;;;;12.25;8.32;;;;;;;;;;5027882;28;20239;-85
2023/08/23 06:08:39;;;;;;;13.50;8.90;;;;;;;;;;5016294;28;20207;-84
2023/08/23 06:11:06;;;;;;;12.90;8.70;;;;;;;;;;5014721;28;20735;-85
2023/08/23 06:13:33;;;;;;;10.90;8.63;;;;;;;;;;5020549;28;20642;-85
2023/08/23 06:16:02;;;;;;;9.63;8.00;;;;;;;;;;5026229;28;20231;-86
2023/08/23 06:18:29;;;;;;;11.73;9.18;;;;;;;;;;5026053;28;20207;-85
2023/08/23 06:20:56;;;;;;;11.18;8.63;;;;;;;;;;5034192;28;20723;-84
2023/08/23 06:23:23;;;;;;;9.10;8.30;;;;;;;;;;5036859;28;20207;-84
2023/08/23 06:25:50;;;;;;;11.40;8.73;;;;;;;;;;5034488;28;20530;-84
2023/08/23 06:28:17;;;;;;;10.77;8.27;;;;;;;;;;5033849;28;20575;-85
2023/08/23 06:30:44;;;;;;;8.68;7.88;;;;;;;;;;5023267;28;20285;-84
2023/08/23 06:33:12;;;;;;;9.77;8.75;;;;;;;;;;5034017;28;20218;-85
2023/08/23 06:35:39;;;;;;;11.57;7.97;;;;;;;;;;5033993;28;20285;-86
2023/08/23 06:38:06;;;;;;;9.50;8.00;;;;;;;;;;5034732;28;20218;-86
2023/08/23 06:40:33;;;;;;;10.63;8.25;;;;;;;;;;5029576;28;20235;-86
2023/08/23 06:43:01;;;;;;;8.70;7.80;;;;;;;;;;5032167;28;20211;-86
2023/08/23 06:45:28;;;;;;;10.63;7.72;;;;;;;;;;5029661;28;20246;-87
2023/08/23 06:47:55;;;;;;;8.82;8.02;;;;;;;;;;5031010;28;20551;-85
2023/08/23 06:50:23;;;;;;;8.50;7.65;;;;;;;;;;5020144;28;20790;-86
2023/08/23 06:52:50;;;;;;;8.90;8.10;;;;;;;;;;5026056;28;20206;-85
2023/08/23 06:55:19;;;;;;;9.30;8.40;;;;;;;;;;5025014;28;20598;-85
2023/08/23 06:57:46;;;;;;;9.68;8.05;;;;;;;;;;5027170;28;20211;-85
2023/08/23 07:00:14;;;;;;;9.43;8.50;;;;;;;;;;5030125;28;20575;-86
2023/08/23 07:02:41;;;;;;;13.77;8.90;;;;;;;;;;5028673;28;20668;-85
2023/08/23 07:05:08;;;;;;;9.50;7.88;;;;;;;;;;5024188;28;20233;-85
2023/08/23 07:07:36;;;;;;;9.95;7.65;;;;;;;;;;5027767;28;20230;-86
2023/08/23 07:10:04;;;;;;;8.75;7.95;;;;;;;;;;5024178;28;20226;-85
2023/08/23 07:12:31;;;;;;;8.05;7.25;;;;;;;;;;5018203;28;20218;-80
2023/08/23 07:14:58;;;;;;;8.48;7.50;;;;;;;;;;5024756;28;20238;-81
2023/08/23 07:17:25;;;;;;;8.35;7.55;;;;;;;;;;5020904;28;20306;-82
2023/08/23 07:19:52;;;;;;;9.10;8.18;;;;;;;;;;5021347;28;20207;-81
2023/08/23 07:22:19;;;;;;;8.52;7.70;;;;;;;;;;5017904;28;20222;-81
2023/08/23 07:24:47;;;;;;;8.73;7.82;;;;;;;;;;5024631;28;20233;-80
2023/08/23 07:27:14;;;;;;;8.65;7.53;;;;;;;;;;5031462;28;20239;-81
2023/08/23 07:29:41;;;;;;;9.77;7.82;;;;;;;;;;5018706;28;20203;-81
2023/08/23 07:32:09;;;;;;;9.35;8.20;;;;;;;;;;5021298;28;20239;-82
2023/08/23 07:34:36;;;;;;;12.55;7.47;;;;;;;;;;5024233;28;20226;-81
2023/08/23 07:37:03;;;;;;;11.82;6.95;;;;;;;;;;5023041;28;20257;-81
2023/08/23 07:39:30;;;;;;;9.45;5.22;;;;;;;;;;5031155;28;20214;-81
2023/08/23 07:41:58;;;;;;;7.65;5.43;;;;;;;;;;5032439;28;20233;-81
2023/08/23 07:44:25;;;;;;;7.53;6.10;;;;;;;;;;5024048;28;20233;-82
2023/08/23 07:46:53;;;;;;;5.50;4.70;;;;;;;;;;5016527;28;20223;-82
2023/08/23 07:49:20;;;;;;;8.45;5.50;;;;;;;;;;5026514;28;20234;-81
2023/08/23 07:51:48;;;;;;;5.55;4.50;;;;;;;;;;5023691;28;20234;-81
2023/08/23 07:54:15;;;;;;;6.35;4.65;;;;;;;;;;5013985;28;20570;-82
2023/08/23 07:56:42;;;;;;;7.45;5.72;;;;;;;;;;5025473;28;20596;-81
2023/08/23 07:59:10;;;;;;;6.88;5.25;;;;;;;;;;5023787;28;20226;-82
2023/08/23 08:01:37;;;;;;;7.10;4.78;;;;;;;;;;5021654;28;20238;-81
2023/08/23 08:04:05;;;;;;;6.05;4.60;;;;;;;;;;5031868;28;20205;-80
2023/08/23 08:06:32;;;;;;;6.75;5.40;;;;;;;;;;5023378;28;20234;-82
2023/08/23 08:08:59;;;;;;;7.80;4.70;;;;;;;;;;5024169;28;20207;-81
2023/08/23 08:11:26;;;;;;;7.22;5.00;;;;;;;;;;5027965;28;20693;-82
2023/08/23 08:13:53;;;;;;;5.07;4.38;;;;;;;;;;5020406;28;20211;-81
2023/08/23 08:16:21;;;;;;;4.60;3.70;;;;;;;;;;5022046;28;20235;-81
2023/08/23 08:18:48;;;;;;;5.90;3.78;;;;;;;;;;5031845;28;20207;-81
2023/08/23 08:21:17;;;;;;;4.30;3.90;;;;;;;;;;5031013;28;20227;-81
2023/08/23 08:23:46;;;;;;;13.10;4.45;;;;;;;;;;5031442;28;20217;-82
2023/08/23 08:26:13;;;;;;;8.20;3.80;;;;;;;;;;5023805;28;20235;-81
2023/08/23 08:28:43;;;;;;;5.60;3.65;;;;;;;;;;5023438;28;20199;-81
2023/08/23 08:31:10;;;;;;;5.97;4.15;;;;;;;;;;5013356;28;20326;-81
2023/08/23 08:33:39;;;;;;;4.20;3.70;;;;;;;;;;5019651;28;20211;-81
2023/08/23 08:36:07;;;;;;;4.53;3.65;;;;;;;;;;5017346;28;20235;-81
2023/08/23 08:38:34;;;;;;;6.75;3.83;;;;;;;;;;5019062;28;20208;-81
2023/08/23 08:41:01;;;;;;;5.55;3.78;;;;;;;;;;5011619;28;20233;-82
2023/08/23 08:43:28;;;;;;;3.80;2.75;;;;;;;;;;5023712;28;20207;-80
2023/08/23 08:45:55;;;;;;;8.25;4.25;;;;;;;;;;5016008;28;20337;-80
2023/08/23 08:48:22;;;;;;;4.35;3.05;;;;;;;;;;5023055;28;20208;-80
2023/08/23 08:50:50;;;;;;;3.92;3.35;;;;;;;;;;5012380;28;20231;-81
2023/08/23 08:53:20;;;;;;;4.63;3.05;;;;;;;;;;5019770;28;20211;-81
2023/08/23 08:55:47;;;;;;;4.18;3.75;;;;;;;;;;5014995;28;20230;-81
2023/08/23 08:58:19;;;;;;;4.28;3.40;;;;;;;;;;5020676;28;20207;-80
2023/08/23 09:00:47;;;;;;;4.30;2.70;;;;;;;;;;5024400;28;20226;-80
2023/08/23 09:03:14;;;;;;;3.70;2.53;;;;;;;;;;5030773;28;20221;-81
2023/08/23 09:05:41;;;;;;;5.05;3.00;;;;;;;;;;5021387;28;20226;-82
2023/08/23 09:08:09;;;;;;;4.57;2.90;;;;;;;;;;5022633;28;20214;-81
2023/08/23 09:10:37;;;;;;;4.85;2.63;;;;;;;;;;5017715;28;20600;-82
2023/08/23 09:13:04;;;;;;;3.88;3.08;;;;;;;;;;5019520;28;20211;-82
2023/08/23 09:15:32;;;;;;;4.50;2.50;;;;;;;;;;5017202;28;20265;-82
2023/08/23 09:17:59;;;;;;;3.08;2.60;;;;;;;;;;5014796;28;20211;-82
2023/08/23 09:20:26;;;;;;;4.95;3.00;;;;;;;;;;5021097;28;20593;-82
2023/08/23 09:22:53;;;;;;;3.17;2.50;;;;;;;;;;5030204;28;20207;-83
2023/08/23 09:25:22;;;;;;;4.88;2.65;;;;;;;;;;5029356;28;20229;-83
2023/08/23 09:27:49;;;;;;;4.22;2.85;;;;;;;;;;5030483;28;20302;-83
2023/08/23 09:30:16;;;;;;;3.67;3.33;;;;;;;;;;5020096;28;20301;-82
2023/08/23 09:32:43;;;;;;;4.82;2.83;;;;;;;;;;5025810;28;20230;-84
2023/08/23 09:35:11;;;;;;;3.50;2.30;;;;;;;;;;5027483;28;20233;-82
2023/08/23 09:37:40;;;;;;;2.20;2.10;;;;;;;;;;5015258;28;20226;-82
2023/08/23 09:40:15;;;;;;;2.65;2.42;;;;;;;;;;5021624;28;20211;-82
2023/08/23 09:42:44;;;;;;;3.67;2.20;;;;;;;;;;5025475;28;20218;-82
2023/08/23 09:45:12;;;;;;;3.58;2.30;;;;;;;;;;5018724;28;20236;-83
2023/08/23 09:47:41;;;;;;;5.10;2.50;;;;;;;;;;5030052;28;20210;-82
2023/08/23 09:50:09;;;;;;;4.82;2.33;;;;;;;;;;5021714;28;20708;-82
2023/08/23 09:52:38;;;;;;;2.67;2.33;;;;;;;;;;5021852;28;20234;-86
2023/08/23 09:55:11;;;;;;;3.20;2.03;;;;;;;;;;5018152;28;20226;-86
2023/08/23 09:57:38;;;;;;;2.95;2.50;;;;;;;;;;5021463;28;20301;-86
2023/08/23 10:00:08;;;;;;;2.85;2.33;;;;;;;;;;5013615;28;20211;-86
2023/08/23 10:02:35;;;;;;;2.90;2.10;;;;;;;;;;5018834;28;20203;-86
2023/08/23 10:05:04;;;;;;;3.33;1.98;;;;;;;;;;5018466;28;20231;-82
2023/08/23 10:07:33;;;;;;;2.80;2.30;;;;;;;;;;5018486;28;20294;-81
2023/08/23 10:10:01;;;;;;;3.55;1.90;;;;;;;;;;5017500;28;20211;-83
2023/08/23 10:12:29;;;;;;;3.13;2.08;;;;;;;;;;5011964;28;20666;-83
2023/08/23 10:14:57;;;;;;;2.85;1.92;;;;;;;;;;5012180;28;20707;-83
2023/08/23 10:17:26;;;;;;;2.85;2.40;;;;;;;;;;5014444;28;20234;-83
2023/08/23 10:19:53;;;;;;;4.60;2.40;;;;;;;;;;5013794;28;20207;-82
2023/08/23 10:22:20;;;;;;;4.47;2.47;;;;;;;;;;5029209;28;20576;-82
2023/08/23 10:24:48;;;;;;;3.88;2.38;;;;;;;;;;5027538;28;20251;-83
2023/08/23 10:27:15;;;;;;;3.50;2.38;;;;;;;;;;5012404;28;20693;-83
2023/08/23 10:29:42;;;;;;;3.90;2.50;;;;;;;;;;5013517;28;20660;-82
2023/08/23 10:32:10;;;;;;;4.50;2.15;;;;;;;;;;5014041;28;20285;-80
2023/08/23 10:34:39;;;;;;;6.95;2.90;;;;;;;;;;5024307;28;20712;-81
2023/08/23 10:37:23;;;;;;;3.80;2.30;;;;;;;;;;5020484;28;20238;-81
2023/08/23 10:39:52;;;;;;;3.58;2.00;;;;;;;;;;5016804;28;20199;-80
2023/08/23 10:42:19;;;;;;;3.42;2.15;;;;;;;;;;5012376;28;20227;-81
2023/08/23 10:44:47;;;;;;;3.20;1.83;;;;;;;;;;5012346;28;20253;-80
2023/08/23 10:47:14;;;;;;;5.78;2.13;;;;;;;;;;5019956;28;20237;-80
2023/08/23 10:49:43;;;;;;;3.38;2.15;;;;;;;;;;5012396;28;20219;-81
2023/08/23 10:52:10;;;;;;;2.75;1.80;;;;;;;;;;5020977;28;20231;-81
2023/08/23 10:54:37;;;;;;;2.85;1.90;;;;;;;;;;5024836;28;20240;-80
2023/08/23 10:57:05;;;;;;;4.28;2.13;;;;;;;;;;5016625;28;20301;-83
2023/08/23 10:59:32;;;;;;;5.22;1.90;;;;;;;;;;5020950;28;20211;-80
2023/08/23 11:01:59;;;;;;;2.38;2.00;;;;;;;;;;5015520;28;20223;-80
2023/08/23 11:04:26;;;;;;;4.80;2.35;;;;;;;;;;5013752;28;20705;-79
2023/08/23 11:06:55;;;;;;;3.28;2.08;;;;;;;;;;5023616;28;20238;-80
2023/08/23 11:09:22;;;;;;;3.72;1.77;;;;;;;;;;5023670;28;20210;-80
2023/08/23 11:11:49;;;;;;;5.15;2.10;;;;;;;;;;5014156;28;20611;-80
2023/08/23 11:14:17;;;;;;;6.00;1.98;;;;;;;;;;5013122;28;20207;-80
2023/08/23 11:16:44;;;;;;;3.60;2.20;;;;;;;;;;5012455;28;20230;-84
2023/08/23 11:19:12;;;;;;;2.78;2.20;;;;;;;;;;5013053;28;20210;-84
2023/08/23 11:21:40;;;;;;;3.45;2.13;;;;;;;;;;5012346;28;20724;-84
2023/08/23 11:24:08;;;;;;;2.83;1.95;;;;;;;;;;5017798;28;20198;-86
2023/08/23 11:26:35;;;;;;;2.72;2.17;;;;;;;;;;5012564;28;20223;-83
2023/08/23 11:29:02;;;;;;;2.63;2.03;;;;;;;;;;5014240;28;20203;-84
2023/08/23 11:31:30;;;;;;;3.65;1.92;;;;;;;;;;5020261;28;20227;-84
2023/08/23 11:33:58;;;;;;;2.53;2.15;;;;;;;;;;5010879;28;20199;-83
2023/08/23 11:36:27;;;;;;;3.40;1.77;;;;;;;;;;5011209;28;20243;-84
2023/08/23 11:38:54;;;;;;;2.55;2.00;;;;;;;;;;5012044;28;20210;-84
2023/08/23 11:41:29;;;;;;;4.93;1.92;;;;;;;;;;5011265;28;20234;-84
2023/08/23 11:43:56;;;;;;;3.58;2.00;;;;;;;;;;5012581;28;20198;-84
2023/08/23 11:46:23;;;;;;;2.30;1.92;;;;;;;;;;5011826;28;20720;-84
2023/08/23 11:48:50;;;;;;;3.00;2.30;;;;;;;;;;5012757;28;20234;-84
2023/08/23 11:51:17;;;;;;;2.45;2.00;;;;;;;;;;5011827;28;20593;-84
2023/08/23 11:53:51;;;;;;;3.35;2.10;;;;;;;;;;5012568;28;20658;-84
2023/08/23 11:56:18;;;;;;;2.90;2.03;;;;;;;;;;5011617;28;20239;-84
2023/08/23 11:58:47;;;;;;;3.13;2.00;;;;;;;;;;5012318;28;20199;-84
2023/08/23 12:01:14;;;;;;;2.50;2.00;;;;;;;;;;5011907;28;20231;-83
2023/08/23 12:03:41;;;;;;;2.00;1.80;;;;;;;;;;5012361;28;20203;-84
2023/08/23 12:06:08;;;;;;;3.08;1.92;;;;;;;;;;5011878;28;20258;-84
2023/08/23 12:08:35;;;;;;;2.53;1.77;;;;;;;;;;5020210;28;20211;-84
2023/08/23 12:11:02;;;;;;;2.10;1.80;;;;;;;;;;5011803;28;20227;-84
2023/08/23 12:13:29;;;;;;;1.77;1.60;;;;;;;;;;5011786;28;20611;-84
2023/08/23 12:15:57;;;;;;;3.38;1.60;;;;;;;;;;5011516;28;20610;-84
2023/08/23 12:18:24;;;;;;;3.05;1.98;;;;;;;;;;5011878;28;20578;-84
2023/08/23 12:20:51;;;;;;;1.80;1.70;;;;;;;;;;5011682;28;20218;-84
2023/08/23 12:23:19;;;;;;;3.33;1.98;;;;;;;;;;5011892;28;20206;-84
2023/08/23 12:25:46;;;;;;;3.88;1.75;;;;;;;;;;5011312;28;20231;-84
2023/08/23 12:28:14;;;;;;;2.40;1.52;;;;;;;;;;5011955;28;20213;-85
2023/08/23 12:30:41;;;;;;;2.55;1.70;;;;;;;;;;5023012;28;20228;-84
2023/08/23 12:33:09;;;;;;;1.80;1.70;;;;;;;;;;5031650;28;20350;-85
2023/08/23 12:35:36;;;;;;;5.15;2.00;;;;;;;;;;5030645;28;20230;-84
2023/08/23 12:38:04;;;;;;;2.50;1.75;;;;;;;;;;5031513;28;20202;-84
2023/08/23 12:40:31;;;;;;;2.70;1.90;;;;;;;;;;5030087;28;20234;-85
2023/08/23 12:42:58;;;;;;;2.78;1.80;;;;;;;;;;5031428;28;20217;-85
2023/08/23 12:45:25;;;;;;;3.05;1.65;;;;;;;;;;5030978;28;20312;-85
2023/08/23 12:47:52;;;;;;;5.82;2.00;;;;;;;;;;5031589;28;20202;-84
2023/08/23 12:50:20;;;;;;;2.67;1.77;;;;;;;;;;5030950;28;20206;-85
2023/08/23 12:52:47;;;;;;;3.40;1.40;;;;;;;;;;5031546;28;20237;-84
2023/08/23 12:55:15;;;;;;;3.92;1.77;;;;;;;;;;5030883;28;20278;-85
2023/08/23 12:57:42;;;;;;;1.70;1.60;;;;;;;;;;5011540;28;20206;-85
2023/08/23 13:00:09;;;;;;;5.63;1.85;;;;;;;;;;5011257;28;20222;-84
2023/08/23 13:02:37;;;;;;;2.72;1.63;;;;;;;;;;5011563;28;20210;-85
2023/08/23 13:05:04;;;;;;;3.03;1.73;;;;;;;;;;5011155;28;20600;-84
2023/08/23 13:07:32;;;;;;;2.90;1.83;;;;;;;;;;5028198;22;20223;-89
2023/08/23 13:10:00;;;;;;;1.85;1.73;;;;;;;;;;5006157;28;20682;-89
2023/08/23 13:12:27;;;;;;;2.38;1.48;;;;;;;;;;5011572;28;20231;-89
2023/08/23 13:14:54;;;;;;;2.22;1.77;;;;;;;;;;5011761;28;20210;-89
2023/08/23 13:17:21;;;;;;;2.75;1.55;;;;;;;;;;5011042;28;20257;-89
2023/08/23 13:19:48;;;;;;;1.98;1.48;;;;;;;;;;4999167;28;20208;-89
2023/08/23 13:22:15;;;;;;;4.13;1.50;;;;;;;;;;4991378;28;20227;-89
2023/08/23 13:24:45;;;;;;;3.13;1.80;;;;;;;;;;4987029;28;20218;-89
2023/08/23 13:27:12;;;;;;;3.08;1.50;;;;;;;;;;5010953;28;20238;-89
2023/08/23 13:29:39;;;;;;;1.35;1.27;;;;;;;;;;5000618;28;20703;-89
2023/08/23 13:32:06;;;;;;;5.68;3.80;;;;;;;;;;4991267;28;20238;-89
2023/08/23 13:34:33;;;;;;;4.88;1.70;;;;;;;;;;4985695;28;20219;-89
2023/08/23 13:37:00;;;;;;;4.18;1.60;;;;;;;;;;5010875;28;20237;-89
2023/08/23 13:39:27;;;;;;;2.58;1.92;;;;;;;;;;5011090;28;20799;-89
2023/08/23 13:41:56;;;;;;;2.83;1.80;;;;;;;;;;5010795;28;20251;-89
2023/08/23 13:44:23;;;;;;;4.95;1.98;;;;;;;;;;5011322;28;20211;-89
2023/08/23 13:46:50;;;;;;;1.65;1.48;;;;;;;;;;5010639;28;20227;-89
2023/08/23 13:49:17;;;;;;;2.47;1.65;;;;;;;;;;5011327;28;20222;-89
2023/08/23 13:51:44;;;;;;;2.58;1.77;;;;;;;;;;5008809;28;20228;-88
2023/08/23 13:54:11;;;;;;;3.17;1.63;;;;;;;;;;5002473;28;20603;-89
2023/08/23 13:56:39;;;;;;;1.92;1.65;;;;;;;;;;5011959;28;20576;-89
2023/08/23 13:59:07;;;;;;;3.25;1.90;;;;;;;;;;4989469;28;20315;-89
2023/08/23 14:01:34;;;;;;;5.40;3.05;;;;;;;;;;5011351;28;20227;-89
2023/08/23 14:04:03;;;;;;;2.17;1.63;;;;;;;;;;5015005;28;20258;-89
2023/08/23 14:06:30;;;;;;;2.35;1.60;;;;;;;;;;5014387;28;20258;-89
2023/08/23 14:08:57;;;;;;;2.78;1.83;;;;;;;;;;5009493;28;20231;-89
2023/08/23 14:11:24;;;;;;;1.75;1.65;;;;;;;;;;4994836;28;20238;-89
2023/08/23 14:13:52;;;;;;;2.28;1.77;;;;;;;;;;5014805;28;20321;-89
2023/08/23 14:16:20;;;;;;;2.45;2.25;;;;;;;;;;5014206;28;20282;-89
2023/08/23 14:18:47;;;;;;;4.00;1.88;;;;;;;;;;4999388;28;20231;-89
2023/08/23 14:21:14;;;;;;;3.00;2.05;;;;;;;;;;5007178;28;20403;-89
2023/08/23 14:23:41;;;;;;;4.00;1.92;;;;;;;;;;5005669;28;20207;-89
2023/08/23 14:26:08;;;;;;;1.80;1.70;;;;;;;;;;5013864;28;20231;-89
2023/08/23 14:28:36;;;;;;;2.95;1.85;;;;;;;;;;5013980;28;20601;-88
2023/08/23 14:31:04;;;;;;;4.55;1.88;;;;;;;;;;5013890;28;20234;-89
2023/08/23 14:33:32;;;;;;;4.43;1.70;;;;;;;;;;4996260;28;20260;-88
2023/08/23 14:35:59;;;;;;;2.00;1.80;;;;;;;;;;4988533;28;20232;-89
2023/08/23 14:38:26;;;;;;;5.13;1.90;;;;;;;;;;5005383;28;20238;-88
2023/08/23 14:40:55;;;;;;;2.30;1.90;;;;;;;;;;4982414;28;20764;-88
2023/08/23 14:43:23;;;;;;;2.30;2.10;;;;;;;;;;4994698;28;20207;-88
2023/08/23 14:45:50;;;;;;;2.03;1.77;;;;;;;;;;4993858;28;20231;-88